sensor_id;sensor_type;location;lat;lon;timestamp;P1;durP1;ratioP1;P2;durP2;ratioP2
56233;SDS011;42141;53.240;6.580;2022-12-29T00:01:17;2.80;;;2.50;;
56233;SDS011;42141;53.240;6.580;2022-12-29T00:03:46;5.18;;;2.15;;
56233;SDS011;42141;53.240;6.580;2022-12-29T00:06:12;3.50;;;2.38;;
56233;SDS011;42141;53.240;6.580;2022-12-29T00:08:38;2.45;;;2.03;;
56233;SDS011;42141;53.240;6.580;2022-12-29T00:11:16;4.90;;;3.13;;
56233;SDS011;42141;53.240;6.580;2022-12-29T00:13:47;4.63;;;3.38;;
56233;SDS011;42141;53.240;6.580;2022-12-29T00:16:31;4.13;;;2.30;;
56233;SDS011;42141;53.240;6.580;2022-12-29T00:18:58;2.85;;;1.92;;
56233;SDS011;42141;53.240;6.580;2022-12-29T00:21:24;3.53;;;2.30;;
56233;SDS011;42141;53.240;6.580;2022-12-29T00:24:10;2.15;;;1.58;;
56233;SDS011;42141;53.240;6.580;2022-12-29T00:29:46;4.95;;;2.00;;
56233;SDS011;42141;53.240;6.580;2022-12-29T00:32:31;2.70;;;1.92;;
56233;SDS011;42141;53.240;6.580;2022-12-29T00:35:23;2.53;;;2.00;;
56233;SDS011;42141;53.240;6.580;2022-12-29T00:37:50;2.17;;;1.85;;
56233;SDS011;42141;53.240;6.580;2022-12-29T00:40:35;4.22;;;1.98;;
56233;SDS011;42141;53.240;6.580;2022-12-29T00:43:20;2.05;;;1.73;;
56233;SDS011;42141;53.240;6.580;2022-12-29T00:46:04;4.18;;;1.60;;
56233;SDS011;42141;53.240;6.580;2022-12-29T00:48:30;3.92;;;1.83;;
56233;SDS011;42141;53.240;6.580;2022-12-29T00:51:14;2.88;;;2.17;;
56233;SDS011;42141;53.240;6.580;2022-12-29T00:53:39;6.07;;;2.15;;
56233;SDS011;42141;53.240;6.580;2022-12-29T00:56:05;3.63;;;1.90;;
56233;SDS011;42141;53.240;6.580;2022-12-29T00:58:31;4.15;;;2.03;;
56233;SDS011;42141;53.240;6.580;2022-12-29T01:01:03;3.03;;;1.85;;
56233;SDS011;42141;53.240;6.580;2022-12-29T01:03:30;3.40;;;1.70;;
56233;SDS011;42141;53.240;6.580;2022-12-29T01:05:57;3.78;;;1.80;;
56233;SDS011;42141;53.240;6.580;2022-12-29T01:08:29;4.38;;;1.77;;
56233;SDS011;42141;53.240;6.580;2022-12-29T01:11:02;5.85;;;1.90;;
56233;SDS011;42141;53.240;6.580;2022-12-29T01:13:30;4.28;;;2.17;;
56233;SDS011;42141;53.240;6.580;2022-12-29T01:15:56;3.20;;;1.67;;
56233;SDS011;42141;53.240;6.580;2022-12-29T01:18:22;3.70;;;2.00;;
56233;SDS011;42141;53.240;6.580;2022-12-29T01:20:49;2.53;;;1.98;;
56233;SDS011;42141;53.240;6.580;2022-12-29T01:23:15;3.20;;;2.10;;
56233;SDS011;42141;53.240;6.580;2022-12-29T01:25:41;3.35;;;2.10;;
56233;SDS011;42141;53.240;6.580;2022-12-29T01:28:06;3.92;;;2.55;;
56233;SDS011;42141;53.240;6.580;2022-12-29T01:30:35;3.80;;;2.17;;
56233;SDS011;42141;53.240;6.580;2022-12-29T01:33:01;8.32;;;2.10;;
56233;SDS011;42141;53.240;6.580;2022-12-29T01:35:26;2.60;;;2.08;;
56233;SDS011;42141;53.240;6.580;2022-12-29T01:37:53;5.22;;;2.25;;
56233;SDS011;42141;53.240;6.580;2022-12-29T01:40:19;2.90;;;2.00;;
56233;SDS011;42141;53.240;6.580;2022-12-29T01:42:45;2.78;;;1.90;;
56233;SDS011;42141;53.240;6.580;2022-12-29T01:45:11;3.67;;;2.22;;
56233;SDS011;42141;53.240;6.580;2022-12-29T01:47:38;2.65;;;2.08;;
56233;SDS011;42141;53.240;6.580;2022-12-29T01:50:11;1.95;;;1.73;;
56233;SDS011;42141;53.240;6.580;2022-12-29T01:52:43;5.50;;;2.50;;
56233;SDS011;42141;53.240;6.580;2022-12-29T01:55:15;4.07;;;2.20;;
56233;SDS011;42141;53.240;6.580;2022-12-29T01:57:43;3.42;;;1.83;;
56233;SDS011;42141;53.240;6.580;2022-12-29T02:00:14;3.90;;;2.47;;
56233;SDS011;42141;53.240;6.580;2022-12-29T02:02:41;3.58;;;2.40;;
56233;SDS011;42141;53.240;6.580;2022-12-29T02:05:19;2.88;;;2.05;;
56233;SDS011;42141;53.240;6.580;2022-12-29T02:07:59;2.88;;;2.35;;
56233;SDS011;42141;53.240;6.580;2022-12-29T02:10:26;3.97;;;2.53;;
56233;SDS011;42141;53.240;6.580;2022-12-29T02:12:55;4.72;;;2.25;;
56233;SDS011;42141;53.240;6.580;2022-12-29T02:16:10;4.40;;;2.22;;
56233;SDS011;42141;53.240;6.580;2022-12-29T02:35:27;3.80;;;1.40;;
56233;SDS011;42141;53.240;6.580;2022-12-29T02:37:58;3.38;;;1.55;;
56233;SDS011;42141;53.240;6.580;2022-12-29T02:40:39;5.07;;;1.85;;
56233;SDS011;42141;53.240;6.580;2022-12-29T02:43:19;6.90;;;1.58;;
56233;SDS011;42141;53.240;6.580;2022-12-29T02:48:25;2.65;;;1.52;;
56233;SDS011;42141;53.240;6.580;2022-12-29T02:50:55;2.53;;;1.10;;
56233;SDS011;42141;53.240;6.580;2022-12-29T02:53:27;4.68;;;1.45;;
56233;SDS011;42141;53.240;6.580;2022-12-29T02:56:14;3.67;;;1.48;;
56233;SDS011;42141;53.240;6.580;2022-12-29T02:58:39;3.50;;;1.48;;
56233;SDS011;42141;53.240;6.580;2022-12-29T03:06:35;4.10;;;2.50;;
56233;SDS011;42141;53.240;6.580;2022-12-29T03:09:33;3.90;;;1.10;;
56233;SDS011;42141;53.240;6.580;2022-12-29T03:14:57;8.13;;;1.48;;
56233;SDS011;42141;53.240;6.580;2022-12-29T03:20:21;2.30;;;0.90;;
56233;SDS011;42141;53.240;6.580;2022-12-29T03:22:51;2.13;;;0.90;;
56233;SDS011;42141;53.240;6.580;2022-12-29T03:27:48;6.25;;;1.45;;
56233;SDS011;42141;53.240;6.580;2022-12-29T03:30:26;3.35;;;1.10;;
56233;SDS011;42141;53.240;6.580;2022-12-29T03:32:55;2.50;;;0.73;;
56233;SDS011;42141;53.240;6.580;2022-12-29T03:35:26;2.22;;;1.20;;
56233;SDS011;42141;53.240;6.580;2022-12-29T03:37:58;3.30;;;0.90;;
56233;SDS011;42141;53.240;6.580;2022-12-29T03:40:39;3.42;;;0.70;;
56233;SDS011;42141;53.240;6.580;2022-12-29T03:43:09;4.50;;;0.77;;
56233;SDS011;42141;53.240;6.580;2022-12-29T03:45:35;3.85;;;1.55;;
56233;SDS011;42141;53.240;6.580;2022-12-29T03:48:01;2.63;;;0.60;;
56233;SDS011;42141;53.240;6.580;2022-12-29T03:50:27;1.48;;;0.55;;
56233;SDS011;42141;53.240;6.580;2022-12-29T03:52:52;3.80;;;0.50;;
56233;SDS011;42141;53.240;6.580;2022-12-29T03:55:18;3.30;;;0.40;;
56233;SDS011;42141;53.240;6.580;2022-12-29T03:57:44;1.45;;;0.50;;
56233;SDS011;42141;53.240;6.580;2022-12-29T04:00:10;1.70;;;0.50;;
56233;SDS011;42141;53.240;6.580;2022-12-29T04:02:36;1.42;;;0.47;;
56233;SDS011;42141;53.240;6.580;2022-12-29T04:05:04;4.75;;;0.85;;
56233;SDS011;42141;53.240;6.580;2022-12-29T04:07:31;5.43;;;0.80;;
56233;SDS011;42141;53.240;6.580;2022-12-29T04:09:56;1.73;;;0.65;;
56233;SDS011;42141;53.240;6.580;2022-12-29T04:12:22;2.70;;;0.60;;
56233;SDS011;42141;53.240;6.580;2022-12-29T04:14:48;3.70;;;0.70;;
56233;SDS011;42141;53.240;6.580;2022-12-29T04:17:13;6.45;;;0.55;;
56233;SDS011;42141;53.240;6.580;2022-12-29T04:19:39;4.18;;;0.63;;
56233;SDS011;42141;53.240;6.580;2022-12-29T04:22:05;5.70;;;1.10;;
56233;SDS011;42141;53.240;6.580;2022-12-29T04:24:30;5.95;;;0.93;;
56233;SDS011;42141;53.240;6.580;2022-12-29T04:26:56;2.40;;;0.68;;
56233;SDS011;42141;53.240;6.580;2022-12-29T04:29:22;3.00;;;0.77;;
56233;SDS011;42141;53.240;6.580;2022-12-29T04:31:48;4.35;;;0.57;;
56233;SDS011;42141;53.240;6.580;2022-12-29T04:34:13;5.50;;;0.60;;
56233;SDS011;42141;53.240;6.580;2022-12-29T04:36:39;7.57;;;0.73;;
56233;SDS011;42141;53.240;6.580;2022-12-29T04:39:05;5.90;;;0.82;;
56233;SDS011;42141;53.240;6.580;2022-12-29T04:41:31;3.40;;;0.40;;
56233;SDS011;42141;53.240;6.580;2022-12-29T04:43:57;3.13;;;0.55;;
56233;SDS011;42141;53.240;6.580;2022-12-29T04:46:23;6.85;;;0.55;;
56233;SDS011;42141;53.240;6.580;2022-12-29T04:48:49;4.93;;;0.70;;
56233;SDS011;42141;53.240;6.580;2022-12-29T04:51:14;5.45;;;0.50;;
56233;SDS011;42141;53.240;6.580;2022-12-29T04:53:40;4.63;;;0.45;;
56233;SDS011;42141;53.240;6.580;2022-12-29T04:56:06;11.25;;;0.82;;
56233;SDS011;42141;53.240;6.580;2022-12-29T04:58:32;6.13;;;1.00;;
56233;SDS011;42141;53.240;6.580;2022-12-29T05:00:58;2.45;;;0.65;;
56233;SDS011;42141;53.240;6.580;2022-12-29T05:03:24;7.68;;;0.90;;
56233;SDS011;42141;53.240;6.580;2022-12-29T05:05:52;8.25;;;1.92;;
56233;SDS011;42141;53.240;6.580;2022-12-29T05:08:19;5.13;;;0.95;;
56233;SDS011;42141;53.240;6.580;2022-12-29T05:10:45;7.75;;;1.02;;
56233;SDS011;42141;53.240;6.580;2022-12-29T05:13:13;7.13;;;1.17;;
56233;SDS011;42141;53.240;6.580;2022-12-29T05:15:39;10.68;;;1.13;;
56233;SDS011;42141;53.240;6.580;2022-12-29T05:18:04;4.95;;;0.93;;
56233;SDS011;42141;53.240;6.580;2022-12-29T05:20:30;10.32;;;1.00;;
56233;SDS011;42141;53.240;6.580;2022-12-29T05:22:56;5.70;;;0.90;;
56233;SDS011;42141;53.240;6.580;2022-12-29T05:25:22;9.90;;;1.13;;
56233;SDS011;42141;53.240;6.580;2022-12-29T05:27:48;5.43;;;0.70;;
56233;SDS011;42141;53.240;6.580;2022-12-29T05:30:13;8.07;;;1.15;;
56233;SDS011;42141;53.240;6.580;2022-12-29T05:32:39;11.65;;;1.05;;
56233;SDS011;42141;53.240;6.580;2022-12-29T05:35:05;4.90;;;0.90;;
56233;SDS011;42141;53.240;6.580;2022-12-29T05:37:31;13.20;;;1.77;;
56233;SDS011;42141;53.240;6.580;2022-12-29T05:39:57;8.07;;;1.15;;
56233;SDS011;42141;53.240;6.580;2022-12-29T05:42:24;6.60;;;0.77;;
56233;SDS011;42141;53.240;6.580;2022-12-29T05:44:49;12.98;;;1.45;;
56233;SDS011;42141;53.240;6.580;2022-12-29T05:47:18;13.55;;;1.20;;
56233;SDS011;42141;53.240;6.580;2022-12-29T05:49:44;9.63;;;1.75;;
56233;SDS011;42141;53.240;6.580;2022-12-29T05:52:10;8.68;;;1.13;;
56233;SDS011;42141;53.240;6.580;2022-12-29T05:54:35;3.45;;;0.88;;
56233;SDS011;42141;53.240;6.580;2022-12-29T05:57:01;13.38;;;1.38;;
56233;SDS011;42141;53.240;6.580;2022-12-29T05:59:27;9.43;;;1.00;;
56233;SDS011;42141;53.240;6.580;2022-12-29T06:01:53;11.95;;;1.40;;
56233;SDS011;42141;53.240;6.580;2022-12-29T06:04:19;11.50;;;1.60;;
56233;SDS011;42141;53.240;6.580;2022-12-29T06:06:44;9.25;;;1.15;;
56233;SDS011;42141;53.240;6.580;2022-12-29T06:09:10;9.52;;;2.00;;
56233;SDS011;42141;53.240;6.580;2022-12-29T06:11:36;12.95;;;1.65;;
56233;SDS011;42141;53.240;6.580;2022-12-29T06:14:02;8.95;;;1.27;;
56233;SDS011;42141;53.240;6.580;2022-12-29T06:16:28;8.43;;;2.05;;
56233;SDS011;42141;53.240;6.580;2022-12-29T06:18:53;8.15;;;1.13;;
56233;SDS011;42141;53.240;6.580;2022-12-29T06:21:19;10.68;;;1.33;;
56233;SDS011;42141;53.240;6.580;2022-12-29T06:23:45;10.90;;;1.27;;
56233;SDS011;42141;53.240;6.580;2022-12-29T06:26:11;14.27;;;1.35;;
56233;SDS011;42141;53.240;6.580;2022-12-29T06:28:36;11.02;;;1.50;;
56233;SDS011;42141;53.240;6.580;2022-12-29T06:31:02;11.07;;;1.25;;
56233;SDS011;42141;53.240;6.580;2022-12-29T06:33:28;12.65;;;1.60;;
56233;SDS011;42141;53.240;6.580;2022-12-29T06:35:54;16.70;;;1.48;;
56233;SDS011;42141;53.240;6.580;2022-12-29T06:38:20;8.13;;;1.63;;
56233;SDS011;42141;53.240;6.580;2022-12-29T06:40:46;20.55;;;2.78;;
56233;SDS011;42141;53.240;6.580;2022-12-29T06:43:11;14.20;;;2.28;;
56233;SDS011;42141;53.240;6.580;2022-12-29T06:45:38;10.88;;;1.65;;
56233;SDS011;42141;53.240;6.580;2022-12-29T06:48:05;11.52;;;1.20;;
56233;SDS011;42141;53.240;6.580;2022-12-29T06:50:31;14.38;;;1.63;;
56233;SDS011;42141;53.240;6.580;2022-12-29T06:52:57;19.05;;;2.38;;
56233;SDS011;42141;53.240;6.580;2022-12-29T06:55:22;14.43;;;1.85;;
56233;SDS011;42141;53.240;6.580;2022-12-29T06:57:48;15.65;;;2.42;;
56233;SDS011;42141;53.240;6.580;2022-12-29T07:00:14;22.15;;;2.40;;
56233;SDS011;42141;53.240;6.580;2022-12-29T07:02:40;10.30;;;1.85;;
56233;SDS011;42141;53.240;6.580;2022-12-29T07:05:05;15.88;;;2.13;;
56233;SDS011;42141;53.240;6.580;2022-12-29T07:07:32;16.35;;;2.00;;
56233;SDS011;42141;53.240;6.580;2022-12-29T07:09:58;7.45;;;1.05;;
56233;SDS011;42141;53.240;6.580;2022-12-29T07:12:23;12.57;;;1.88;;
56233;SDS011;42141;53.240;6.580;2022-12-29T07:14:49;19.40;;;1.75;;
56233;SDS011;42141;53.240;6.580;2022-12-29T07:17:15;10.40;;;1.98;;
56233;SDS011;42141;53.240;6.580;2022-12-29T07:19:41;12.13;;;1.77;;
56233;SDS011;42141;53.240;6.580;2022-12-29T07:22:06;10.30;;;1.33;;
56233;SDS011;42141;53.240;6.580;2022-12-29T07:24:33;16.85;;;2.55;;
56233;SDS011;42141;53.240;6.580;2022-12-29T07:26:58;9.57;;;1.52;;
56233;SDS011;42141;53.240;6.580;2022-12-29T07:29:24;13.77;;;1.58;;
56233;SDS011;42141;53.240;6.580;2022-12-29T07:31:50;9.05;;;1.45;;
56233;SDS011;42141;53.240;6.580;2022-12-29T07:34:15;10.80;;;1.35;;
56233;SDS011;42141;53.240;6.580;2022-12-29T07:36:41;12.27;;;1.42;;
56233;SDS011;42141;53.240;6.580;2022-12-29T07:39:07;12.60;;;1.80;;
56233;SDS011;42141;53.240;6.580;2022-12-29T07:41:33;14.77;;;3.47;;
56233;SDS011;42141;53.240;6.580;2022-12-29T07:43:59;9.27;;;1.95;;
56233;SDS011;42141;53.240;6.580;2022-12-29T07:46:25;13.57;;;2.47;;
56233;SDS011;42141;53.240;6.580;2022-12-29T07:48:51;24.88;;;2.28;;
56233;SDS011;42141;53.240;6.580;2022-12-29T07:51:16;15.82;;;3.70;;
56233;SDS011;42141;53.240;6.580;2022-12-29T07:53:42;12.15;;;2.97;;
56233;SDS011;42141;53.240;6.580;2022-12-29T07:56:08;10.60;;;2.13;;
56233;SDS011;42141;53.240;6.580;2022-12-29T07:58:33;4.53;;;1.17;;
56233;SDS011;42141;53.240;6.580;2022-12-29T08:00:59;16.55;;;1.90;;
56233;SDS011;42141;53.240;6.580;2022-12-29T08:03:25;17.25;;;1.80;;
56233;SDS011;42141;53.240;6.580;2022-12-29T08:05:51;13.77;;;1.33;;
56233;SDS011;42141;53.240;6.580;2022-12-29T08:08:17;15.00;;;1.60;;
56233;SDS011;42141;53.240;6.580;2022-12-29T08:10:43;13.98;;;1.90;;
56233;SDS011;42141;53.240;6.580;2022-12-29T08:13:09;11.57;;;2.08;;
56233;SDS011;42141;53.240;6.580;2022-12-29T08:15:36;11.43;;;1.90;;
56233;SDS011;42141;53.240;6.580;2022-12-29T08:18:02;10.48;;;2.00;;
56233;SDS011;42141;53.240;6.580;2022-12-29T08:20:28;12.65;;;1.58;;
56233;SDS011;42141;53.240;6.580;2022-12-29T08:22:54;10.32;;;2.25;;
56233;SDS011;42141;53.240;6.580;2022-12-29T08:25:20;12.15;;;1.75;;
56233;SDS011;42141;53.240;6.580;2022-12-29T08:27:46;9.35;;;2.47;;
56233;SDS011;42141;53.240;6.580;2022-12-29T08:30:11;15.52;;;1.95;;
56233;SDS011;42141;53.240;6.580;2022-12-29T08:32:38;9.93;;;1.38;;
56233;SDS011;42141;53.240;6.580;2022-12-29T08:35:04;17.77;;;2.22;;
56233;SDS011;42141;53.240;6.580;2022-12-29T08:37:30;12.80;;;2.60;;
56233;SDS011;42141;53.240;6.580;2022-12-29T08:39:57;19.63;;;2.65;;
56233;SDS011;42141;53.240;6.580;2022-12-29T08:42:25;17.35;;;2.58;;
56233;SDS011;42141;53.240;6.580;2022-12-29T08:44:55;15.65;;;3.45;;
56233;SDS011;42141;53.240;6.580;2022-12-29T08:47:24;15.90;;;2.88;;
56233;SDS011;42141;53.240;6.580;2022-12-29T08:49:50;23.10;;;3.92;;
56233;SDS011;42141;53.240;6.580;2022-12-29T08:52:16;22.73;;;2.33;;
56233;SDS011;42141;53.240;6.580;2022-12-29T08:54:42;14.95;;;2.30;;
56233;SDS011;42141;53.240;6.580;2022-12-29T08:57:08;16.83;;;2.40;;
56233;SDS011;42141;53.240;6.580;2022-12-29T08:59:34;13.68;;;2.17;;
56233;SDS011;42141;53.240;6.580;2022-12-29T09:02:00;27.13;;;3.83;;
56233;SDS011;42141;53.240;6.580;2022-12-29T09:04:26;25.92;;;3.28;;
56233;SDS011;42141;53.240;6.580;2022-12-29T09:06:52;16.30;;;2.55;;
56233;SDS011;42141;53.240;6.580;2022-12-29T09:09:18;24.73;;;2.45;;
56233;SDS011;42141;53.240;6.580;2022-12-29T09:11:44;18.67;;;2.60;;
56233;SDS011;42141;53.240;6.580;2022-12-29T09:14:10;24.13;;;3.85;;
56233;SDS011;42141;53.240;6.580;2022-12-29T09:16:37;24.08;;;3.38;;
56233;SDS011;42141;53.240;6.580;2022-12-29T09:19:03;24.27;;;3.20;;
56233;SDS011;42141;53.240;6.580;2022-12-29T09:21:29;33.90;;;3.33;;
56233;SDS011;42141;53.240;6.580;2022-12-29T09:23:55;14.23;;;2.15;;
56233;SDS011;42141;53.240;6.580;2022-12-29T09:26:20;19.88;;;2.45;;
56233;SDS011;42141;53.240;6.580;2022-12-29T09:28:46;19.05;;;2.38;;
56233;SDS011;42141;53.240;6.580;2022-12-29T09:31:12;17.73;;;2.88;;
56233;SDS011;42141;53.240;6.580;2022-12-29T09:33:38;16.33;;;2.47;;
56233;SDS011;42141;53.240;6.580;2022-12-29T09:36:04;16.98;;;1.77;;
56233;SDS011;42141;53.240;6.580;2022-12-29T09:38:30;20.88;;;2.53;;
56233;SDS011;42141;53.240;6.580;2022-12-29T09:41:00;20.30;;;3.17;;
56233;SDS011;42141;53.240;6.580;2022-12-29T09:44:03;19.60;;;1.92;;
56233;SDS011;42141;53.240;6.580;2022-12-29T09:46:42;22.77;;;3.35;;
56233;SDS011;42141;53.240;6.580;2022-12-29T09:52:05;11.90;;;1.80;;
56233;SDS011;42141;53.240;6.580;2022-12-29T09:59:54;16.27;;;1.83;;
56233;SDS011;42141;53.240;6.580;2022-12-29T10:10:43;15.50;;;1.52;;
56233;SDS011;42141;53.240;6.580;2022-12-29T10:13:26;14.48;;;1.90;;
56233;SDS011;42141;53.240;6.580;2022-12-29T10:16:11;14.70;;;2.30;;
56233;SDS011;42141;53.240;6.580;2022-12-29T10:18:54;11.43;;;2.22;;
56233;SDS011;42141;53.240;6.580;2022-12-29T10:24:41;13.02;;;1.90;;
56233;SDS011;42141;53.240;6.580;2022-12-29T10:27:13;18.75;;;2.63;;
56233;SDS011;42141;53.240;6.580;2022-12-29T10:29:48;13.07;;;1.98;;
56233;SDS011;42141;53.240;6.580;2022-12-29T10:32:34;7.78;;;1.52;;
56233;SDS011;42141;53.240;6.580;2022-12-29T10:35:21;9.32;;;1.67;;
56233;SDS011;42141;53.240;6.580;2022-12-29T10:40:36;10.20;;;1.70;;
56233;SDS011;42141;53.240;6.580;2022-12-29T10:45:48;17.20;;;2.70;;
56233;SDS011;42141;53.240;6.580;2022-12-29T10:48:19;6.43;;;1.67;;
56233;SDS011;42141;53.240;6.580;2022-12-29T10:50:47;8.45;;;1.90;;
56233;SDS011;42141;53.240;6.580;2022-12-29T10:53:17;17.15;;;1.50;;
56233;SDS011;42141;53.240;6.580;2022-12-29T10:55:47;12.07;;;2.03;;
56233;SDS011;42141;53.240;6.580;2022-12-29T10:58:14;15.10;;;2.90;;
56233;SDS011;42141;53.240;6.580;2022-12-29T11:00:40;18.92;;;2.13;;
56233;SDS011;42141;53.240;6.580;2022-12-29T11:05:39;14.10;;;1.60;;
56233;SDS011;42141;53.240;6.580;2022-12-29T11:08:25;14.50;;;2.95;;
56233;SDS011;42141;53.240;6.580;2022-12-29T11:10:59;17.55;;;3.00;;
56233;SDS011;42141;53.240;6.580;2022-12-29T11:13:31;18.88;;;3.13;;
56233;SDS011;42141;53.240;6.580;2022-12-29T11:15:58;15.50;;;2.13;;
56233;SDS011;42141;53.240;6.580;2022-12-29T11:18:37;21.90;;;2.90;;
56233;SDS011;42141;53.240;6.580;2022-12-29T11:21:06;16.85;;;2.65;;
56233;SDS011;42141;53.240;6.580;2022-12-29T11:23:58;17.05;;;2.63;;
56233;SDS011;42141;53.240;6.580;2022-12-29T11:26:26;20.63;;;3.13;;
56233;SDS011;42141;53.240;6.580;2022-12-29T11:29:11;19.05;;;2.83;;
56233;SDS011;42141;53.240;6.580;2022-12-29T11:31:47;17.83;;;2.42;;
56233;SDS011;42141;53.240;6.580;2022-12-29T11:34:25;20.23;;;3.53;;
56233;SDS011;42141;53.240;6.580;2022-12-29T11:37:02;16.48;;;3.22;;
56233;SDS011;42141;53.240;6.580;2022-12-29T11:42:03;19.63;;;2.58;;
56233;SDS011;42141;53.240;6.580;2022-12-29T11:44:37;22.83;;;4.45;;
56233;SDS011;42141;53.240;6.580;2022-12-29T11:47:09;21.48;;;2.70;;
56233;SDS011;42141;53.240;6.580;2022-12-29T11:49:50;23.50;;;3.20;;
56233;SDS011;42141;53.240;6.580;2022-12-29T11:52:23;21.13;;;3.73;;
56233;SDS011;42141;53.240;6.580;2022-12-29T11:54:50;22.38;;;3.35;;
56233;SDS011;42141;53.240;6.580;2022-12-29T11:57:18;18.45;;;2.85;;
56233;SDS011;42141;53.240;6.580;2022-12-29T11:59:50;17.30;;;2.10;;
56233;SDS011;42141;53.240;6.580;2022-12-29T12:02:24;17.30;;;2.55;;
56233;SDS011;42141;53.240;6.580;2022-12-29T12:05:11;26.92;;;2.50;;
56233;SDS011;42141;53.240;6.580;2022-12-29T12:08:03;25.02;;;3.83;;
56233;SDS011;42141;53.240;6.580;2022-12-29T12:10:38;14.35;;;3.10;;
56233;SDS011;42141;53.240;6.580;2022-12-29T12:13:18;18.75;;;2.90;;
56233;SDS011;42141;53.240;6.580;2022-12-29T12:15:57;18.50;;;3.70;;
56233;SDS011;42141;53.240;6.580;2022-12-29T12:19:01;18.88;;;3.08;;
56233;SDS011;42141;53.240;6.580;2022-12-29T12:21:36;20.70;;;2.78;;
56233;SDS011;42141;53.240;6.580;2022-12-29T12:24:16;15.00;;;2.47;;
56233;SDS011;42141;53.240;6.580;2022-12-29T12:27:02;25.83;;;3.42;;
56233;SDS011;42141;53.240;6.580;2022-12-29T12:34:54;18.98;;;2.92;;
56233;SDS011;42141;53.240;6.580;2022-12-29T12:43:05;15.50;;;2.67;;
56233;SDS011;42141;53.240;6.580;2022-12-29T12:49:49;9.05;;;1.90;;
56233;SDS011;42141;53.240;6.580;2022-12-29T12:52:21;17.70;;;2.15;;
56233;SDS011;42141;53.240;6.580;2022-12-29T12:55:03;15.93;;;2.22;;
56233;SDS011;42141;53.240;6.580;2022-12-29T13:00:19;10.57;;;2.70;;
56233;SDS011;42141;53.240;6.580;2022-12-29T13:14:57;14.27;;;2.23;;
56233;SDS011;42141;53.240;6.580;2022-12-29T13:31:46;16.40;;;1.58;;
56233;SDS011;42141;53.240;6.580;2022-12-29T13:37:00;7.22;;;1.00;;
56233;SDS011;42141;53.240;6.580;2022-12-29T13:39:33;11.70;;;2.30;;
56233;SDS011;42141;53.240;6.580;2022-12-29T13:42:04;14.30;;;1.50;;
56233;SDS011;42141;53.240;6.580;2022-12-29T13:44:34;15.77;;;1.33;;
56233;SDS011;42141;53.240;6.580;2022-12-29T13:47:20;15.55;;;2.13;;
56233;SDS011;42141;53.240;6.580;2022-12-29T13:49:50;9.73;;;1.08;;
56233;SDS011;42141;53.240;6.580;2022-12-29T14:00:40;9.48;;;1.73;;
56233;SDS011;42141;53.240;6.580;2022-12-29T14:03:27;15.50;;;1.70;;
56233;SDS011;42141;53.240;6.580;2022-12-29T14:08:47;8.80;;;1.35;;
56233;SDS011;42141;53.240;6.580;2022-12-29T14:11:14;10.80;;;1.42;;
56233;SDS011;42141;53.240;6.580;2022-12-29T14:13:43;15.90;;;2.25;;
56233;SDS011;42141;53.240;6.580;2022-12-29T14:16:22;6.63;;;1.58;;
56233;SDS011;42141;53.240;6.580;2022-12-29T14:18:55;17.48;;;2.08;;
56233;SDS011;42141;53.240;6.580;2022-12-29T14:21:28;18.27;;;2.67;;
56233;SDS011;42141;53.240;6.580;2022-12-29T14:23:56;8.38;;;1.15;;
56233;SDS011;42141;53.240;6.580;2022-12-29T14:26:46;7.28;;;2.10;;
56233;SDS011;42141;53.240;6.580;2022-12-29T14:29:54;10.27;;;1.38;;
56233;SDS011;42141;53.240;6.580;2022-12-29T14:35:00;11.50;;;1.77;;
56233;SDS011;42141;53.240;6.580;2022-12-29T14:38:13;11.10;;;1.63;;
56233;SDS011;42141;53.240;6.580;2022-12-29T14:40:48;12.35;;;1.88;;
56233;SDS011;42141;53.240;6.580;2022-12-29T14:43:23;16.35;;;1.85;;
56233;SDS011;42141;53.240;6.580;2022-12-29T14:45:52;11.30;;;2.10;;
56233;SDS011;42141;53.240;6.580;2022-12-29T14:50:59;8.75;;;2.17;;
56233;SDS011;42141;53.240;6.580;2022-12-29T14:53:43;10.38;;;2.08;;
56233;SDS011;42141;53.240;6.580;2022-12-29T14:56:18;11.82;;;2.10;;
56233;SDS011;42141;53.240;6.580;2022-12-29T14:58:53;14.55;;;1.80;;
56233;SDS011;42141;53.240;6.580;2022-12-29T15:01:26;9.73;;;2.97;;
56233;SDS011;42141;53.240;6.580;2022-12-29T15:04:21;13.77;;;1.98;;
56233;SDS011;42141;53.240;6.580;2022-12-29T15:06:52;18.27;;;2.15;;
56233;SDS011;42141;53.240;6.580;2022-12-29T15:09:30;14.07;;;2.60;;
56233;SDS011;42141;53.240;6.580;2022-12-29T15:14:55;12.43;;;1.65;;
56233;SDS011;42141;53.240;6.580;2022-12-29T15:19:51;14.48;;;1.63;;
56233;SDS011;42141;53.240;6.580;2022-12-29T15:22:17;22.17;;;2.08;;
56233;SDS011;42141;53.240;6.580;2022-12-29T15:24:44;17.50;;;2.25;;
56233;SDS011;42141;53.240;6.580;2022-12-29T15:27:10;12.23;;;2.10;;
56233;SDS011;42141;53.240;6.580;2022-12-29T15:29:43;14.02;;;2.15;;
56233;SDS011;42141;53.240;6.580;2022-12-29T15:34:43;12.43;;;1.70;;
56233;SDS011;42141;53.240;6.580;2022-12-29T15:37:15;10.70;;;2.38;;
56233;SDS011;42141;53.240;6.580;2022-12-29T15:40:03;21.17;;;3.10;;
56233;SDS011;42141;53.240;6.580;2022-12-29T15:45:13;9.60;;;1.27;;
56233;SDS011;42141;53.240;6.580;2022-12-29T15:47:41;18.42;;;2.00;;
56233;SDS011;42141;53.240;6.580;2022-12-29T15:50:26;11.52;;;1.75;;
56233;SDS011;42141;53.240;6.580;2022-12-29T15:52:54;13.35;;;1.67;;
56233;SDS011;42141;53.240;6.580;2022-12-29T15:58:01;16.60;;;2.58;;
56233;SDS011;42141;53.240;6.580;2022-12-29T16:00:33;15.35;;;2.50;;
56233;SDS011;42141;53.240;6.580;2022-12-29T16:03:02;17.15;;;2.90;;
56233;SDS011;42141;53.240;6.580;2022-12-29T16:05:38;19.27;;;4.55;;
56233;SDS011;42141;53.240;6.580;2022-12-29T16:10:53;25.30;;;3.03;;
56233;SDS011;42141;53.240;6.580;2022-12-29T16:15:56;11.82;;;2.30;;
56233;SDS011;42141;53.240;6.580;2022-12-29T16:18:27;10.15;;;1.83;;
56233;SDS011;42141;53.240;6.580;2022-12-29T16:20:57;11.48;;;2.40;;
56233;SDS011;42141;53.240;6.580;2022-12-29T16:23:24;16.55;;;2.55;;
56233;SDS011;42141;53.240;6.580;2022-12-29T16:25:54;15.18;;;2.35;;
56233;SDS011;42141;53.240;6.580;2022-12-29T16:34:42;15.43;;;1.38;;
56233;SDS011;42141;53.240;6.580;2022-12-29T16:39:55;8.82;;;1.83;;
56233;SDS011;42141;53.240;6.580;2022-12-29T16:42:45;13.38;;;1.80;;
56233;SDS011;42141;53.240;6.580;2022-12-29T16:50:35;10.05;;;2.58;;
56233;SDS011;42141;53.240;6.580;2022-12-29T16:53:03;4.30;;;0.93;;
56233;SDS011;42141;53.240;6.580;2022-12-29T16:55:30;8.70;;;2.85;;
56233;SDS011;42141;53.240;6.580;2022-12-29T16:57:57;3.05;;;0.93;;
56233;SDS011;42141;53.240;6.580;2022-12-29T17:00:25;3.80;;;1.02;;
56233;SDS011;42141;53.240;6.580;2022-12-29T17:02:57;4.10;;;1.17;;
56233;SDS011;42141;53.240;6.580;2022-12-29T17:05:25;7.00;;;1.60;;
56233;SDS011;42141;53.240;6.580;2022-12-29T17:07:51;6.82;;;1.10;;
56233;SDS011;42141;53.240;6.580;2022-12-29T17:10:17;5.03;;;1.40;;
56233;SDS011;42141;53.240;6.580;2022-12-29T17:12:44;3.47;;;1.58;;
56233;SDS011;42141;53.240;6.580;2022-12-29T17:15:25;6.72;;;1.17;;
56233;SDS011;42141;53.240;6.580;2022-12-29T17:17:57;10.45;;;1.52;;
56233;SDS011;42141;53.240;6.580;2022-12-29T17:20:28;5.00;;;1.08;;
56233;SDS011;42141;53.240;6.580;2022-12-29T17:22:55;7.75;;;1.63;;
56233;SDS011;42141;53.240;6.580;2022-12-29T17:25:25;8.63;;;1.40;;
56233;SDS011;42141;53.240;6.580;2022-12-29T17:30:28;9.13;;;1.80;;
56233;SDS011;42141;53.240;6.580;2022-12-29T17:33:01;17.17;;;2.88;;
56233;SDS011;42141;53.240;6.580;2022-12-29T17:35:29;17.23;;;3.03;;
56233;SDS011;42141;53.240;6.580;2022-12-29T17:37:57;12.60;;;1.98;;
56233;SDS011;42141;53.240;6.580;2022-12-29T17:40:24;17.95;;;5.63;;
56233;SDS011;42141;53.240;6.580;2022-12-29T17:42:53;12.15;;;2.10;;
56233;SDS011;42141;53.240;6.580;2022-12-29T17:45:24;12.95;;;1.92;;